Terminal Aerodrome Forecast
Issued by NWS El Paso, TX

Current Version | Previous Version | Text Only | Print | Product List | Glossary On
Versions: 1 2 3 4 5 6 7 8 9 10 11 12
000
FTUS44 KEPZ 240544
TAFELP
TAF
KELP 240544Z 2406/2506 29023G33KT P6SM SKC
     FM241200 26021G29KT P6SM SCT140
     FM241900 27012G22KT P6SM SKC
     FM250200 31010KT P6SM SKC=

USA.gov is the U.S. government's official web portal to all federal, state and local government web resources and services.